createdAt,value
2018-06-08T00:02:21.863Z,2.50
2018-06-08T00:04:50.258Z,2.90
2018-06-08T00:07:18.627Z,2.50
2018-06-08T00:09:47.019Z,2.33
2018-06-08T00:12:15.387Z,2.30
2018-06-08T00:14:43.786Z,2.67
2018-06-08T00:17:12.159Z,2.87
2018-06-08T00:19:40.554Z,2.60
2018-06-08T00:22:08.927Z,2.47
2018-06-08T00:24:37.335Z,2.37
2018-06-08T00:27:05.766Z,2.10
2018-06-08T00:29:34.138Z,3.10
2018-06-08T00:32:02.539Z,3.10
2018-06-08T00:34:30.919Z,2.80
2018-06-08T00:36:59.339Z,3.40
2018-06-08T00:39:27.710Z,3.50
2018-06-08T00:41:56.111Z,3.67
2018-06-08T00:44:24.478Z,2.60
2018-06-08T00:46:52.870Z,3.00
2018-06-08T00:49:21.249Z,3.40
2018-06-08T00:51:49.642Z,2.80
2018-06-08T00:54:18.033Z,2.77
2018-06-08T00:56:57.898Z,2.63
2018-06-08T00:59:26.269Z,3.20
2018-06-08T01:01:54.687Z,2.80
2018-06-08T01:04:23.060Z,2.30
2018-06-08T01:06:51.475Z,2.73
2018-06-08T01:09:19.851Z,2.40
2018-06-08T01:11:48.222Z,2.50
2018-06-08T01:14:16.613Z,2.60
2018-06-08T01:16:44.979Z,2.83
2018-06-08T01:19:13.374Z,3.03
2018-06-08T01:21:41.743Z,2.80
2018-06-08T01:24:10.562Z,3.10
2018-06-08T01:26:38.926Z,2.73
2018-06-08T01:29:07.331Z,2.90
2018-06-08T01:31:35.704Z,3.20
2018-06-08T01:34:04.100Z,2.63
2018-06-08T01:36:32.472Z,2.47
2018-06-08T01:39:00.867Z,2.70
2018-06-08T01:41:29.239Z,3.33
2018-06-08T01:43:57.635Z,3.17
2018-06-08T01:46:26.006Z,3.30
2018-06-08T01:48:54.384Z,2.73
2018-06-08T01:51:22.774Z,2.90
2018-06-08T01:53:51.141Z,2.80
2018-06-08T01:56:19.551Z,2.67
2018-06-08T01:58:47.923Z,3.10
2018-06-08T02:01:16.338Z,2.73
2018-06-08T02:03:44.713Z,2.13
2018-06-08T02:06:13.102Z,3.00
2018-06-08T02:08:41.488Z,3.83
2018-06-08T02:11:09.879Z,2.50
2018-06-08T02:13:38.251Z,2.47
2018-06-08T02:16:06.650Z,2.53
2018-06-08T02:18:35.028Z,2.60
2018-06-08T02:21:03.425Z,2.87
2018-06-08T02:23:31.831Z,2.83
2018-06-08T02:26:00.233Z,3.20
2018-06-08T02:28:28.608Z,2.73
2018-06-08T02:30:56.999Z,2.87
2018-06-08T02:33:25.416Z,3.47
2018-06-08T02:35:53.790Z,3.07
2018-06-08T02:38:22.184Z,3.20
2018-06-08T02:40:50.573Z,3.20
2018-06-08T02:43:18.978Z,3.20
2018-06-08T02:45:47.347Z,3.03
2018-06-08T02:48:15.751Z,3.27
2018-06-08T02:50:44.131Z,2.63
2018-06-08T02:53:12.530Z,3.40
2018-06-08T02:55:40.914Z,3.23
2018-06-08T02:58:09.307Z,3.60
2018-06-08T03:00:37.715Z,4.13
2018-06-08T03:03:06.116Z,3.50
2018-06-08T03:05:34.486Z,3.60
2018-06-08T03:08:02.882Z,4.03
2018-06-08T03:10:31.268Z,3.07
2018-06-08T03:12:59.688Z,3.30
2018-06-08T03:15:28.067Z,2.83
2018-06-08T03:17:56.438Z,3.40
2018-06-08T03:20:24.835Z,3.03
2018-06-08T03:22:53.206Z,3.03
2018-06-08T03:25:21.611Z,3.23
2018-06-08T03:27:50.003Z,3.57
2018-06-08T03:30:18.429Z,3.00
2018-06-08T03:32:46.804Z,2.80
2018-06-08T03:35:15.194Z,2.80
2018-06-08T03:37:43.558Z,3.27
2018-06-08T03:40:11.950Z,3.33
2018-06-08T03:42:40.614Z,3.30
2018-06-08T03:45:09.046Z,2.73
2018-06-08T03:47:37.422Z,2.93
2018-06-08T03:50:05.798Z,2.37
2018-06-08T03:52:34.190Z,3.83
2018-06-08T03:55:02.554Z,3.90
2018-06-08T03:57:30.950Z,4.30
2018-06-08T03:59:59.330Z,4.27
2018-06-08T04:02:27.772Z,4.77
2018-06-08T04:04:56.155Z,3.70
2018-06-08T04:07:24.562Z,4.10
2018-06-08T04:09:52.933Z,4.10
2018-06-08T04:12:21.323Z,3.33
2018-06-08T04:14:49.698Z,4.10
2018-06-08T04:17:18.090Z,4.10
2018-06-08T04:19:46.453Z,4.33
2018-06-08T04:22:14.858Z,3.93
2018-06-08T04:24:43.226Z,4.13
2018-06-08T04:27:11.614Z,3.63
2018-06-08T04:29:39.994Z,3.60
2018-06-08T04:32:08.467Z,3.97
2018-06-08T04:34:36.847Z,2.63
2018-06-08T04:37:05.257Z,3.73
2018-06-08T04:39:33.627Z,3.40
2018-06-08T04:42:01.994Z,3.30
2018-06-08T04:44:30.390Z,2.80
2018-06-08T04:46:58.754Z,3.40
2018-06-08T04:49:27.155Z,3.50
2018-06-08T04:51:55.531Z,3.20
2018-06-08T04:54:24.008Z,3.30
2018-06-08T04:56:52.916Z,3.60
2018-06-08T04:59:21.862Z,3.63
2018-06-08T05:01:50.262Z,3.47
2018-06-08T05:04:18.663Z,3.90
2018-06-08T05:06:47.051Z,3.00
2018-06-08T05:09:15.454Z,3.57
2018-06-08T05:11:43.891Z,3.87
2018-06-08T05:14:12.306Z,3.33
2018-06-08T05:16:40.685Z,4.17
2018-06-08T05:19:09.058Z,3.30
2018-06-08T05:21:37.459Z,3.73
2018-06-08T05:24:05.838Z,3.90
2018-06-08T05:26:34.248Z,3.17
2018-06-08T05:29:02.634Z,2.60
2018-06-08T05:31:31.131Z,3.07
2018-06-08T05:33:59.612Z,3.10
2018-06-08T05:36:28.004Z,3.63
2018-06-08T05:38:56.378Z,3.33
2018-06-08T05:41:24.774Z,3.17
2018-06-08T05:43:53.142Z,3.40
2018-06-08T05:46:21.547Z,3.03
2018-06-08T05:48:49.926Z,3.27
2018-06-08T05:51:18.342Z,2.70
2018-06-08T05:53:46.753Z,3.10
2018-06-08T05:56:15.151Z,2.87
2018-06-08T05:58:43.543Z,3.07
2018-06-08T06:01:11.963Z,3.17
2018-06-08T06:03:40.367Z,2.40
2018-06-08T06:06:08.740Z,3.00
2018-06-08T06:08:37.147Z,2.90
2018-06-08T06:11:05.524Z,3.20
2018-06-08T06:13:33.922Z,3.60
2018-06-08T06:16:02.296Z,3.60
2018-06-08T06:18:30.690Z,3.90
2018-06-08T06:20:59.114Z,3.17
2018-06-08T06:23:27.506Z,2.90
2018-06-08T06:25:55.884Z,3.80
2018-06-08T06:28:24.277Z,3.93
2018-06-08T06:30:52.656Z,2.77
2018-06-08T06:33:21.065Z,3.60
2018-06-08T06:35:49.503Z,2.47
2018-06-08T06:38:17.877Z,3.20
2018-06-08T06:40:46.275Z,2.90
2018-06-08T06:43:14.647Z,3.00
2018-06-08T06:45:43.122Z,3.10
2018-06-08T06:48:11.490Z,2.43
2018-06-08T06:50:39.887Z,3.30
2018-06-08T06:53:08.318Z,2.73
2018-06-08T06:55:36.699Z,3.13
2018-06-08T06:58:05.071Z,2.97
2018-06-08T07:00:33.493Z,3.17
2018-06-08T07:03:01.862Z,2.30
2018-06-08T07:05:30.267Z,2.70
2018-06-08T07:07:58.647Z,3.10
2018-06-08T07:10:27.043Z,3.17
2018-06-08T07:12:55.416Z,2.63
2018-06-08T07:15:23.818Z,3.53
2018-06-08T07:17:52.189Z,3.40
2018-06-08T07:20:20.562Z,3.00
2018-06-08T07:22:48.958Z,1.93
2018-06-08T07:25:17.330Z,2.73
2018-06-08T07:27:45.722Z,2.77
2018-06-08T07:30:14.102Z,3.10
2018-06-08T07:32:42.498Z,3.07
2018-06-08T07:35:10.876Z,2.50
2018-06-08T07:37:39.270Z,2.23
2018-06-08T07:40:07.845Z,3.00
2018-06-08T07:42:36.205Z,2.37
2018-06-08T07:45:04.603Z,2.83
2018-06-08T07:47:32.991Z,2.60
2018-06-08T07:50:01.367Z,2.77
2018-06-08T07:52:29.763Z,2.57
2018-06-08T07:54:58.145Z,2.63
2018-06-08T07:57:26.519Z,3.03
2018-06-08T07:59:54.919Z,2.40
2018-06-08T08:02:23.306Z,1.77
2018-06-08T08:04:51.699Z,2.30
2018-06-08T08:07:20.075Z,2.73
2018-06-08T08:09:48.465Z,2.30
2018-06-08T08:12:16.912Z,3.43
2018-06-08T08:14:45.316Z,2.17
2018-06-08T08:17:13.690Z,2.30
2018-06-08T08:19:42.091Z,2.57
2018-06-08T08:22:10.453Z,1.87
2018-06-08T08:24:38.862Z,2.70
2018-06-08T08:27:07.235Z,2.67
2018-06-08T08:29:35.634Z,2.43
2018-06-08T08:32:04.031Z,2.40
2018-06-08T08:34:32.426Z,2.87
2018-06-08T08:37:00.804Z,2.40
2018-06-08T08:39:29.176Z,2.47
2018-06-08T08:41:57.575Z,2.63
2018-06-08T08:44:25.942Z,2.10
2018-06-08T08:46:54.339Z,2.27
2018-06-08T08:49:22.757Z,3.00
2018-06-08T08:51:51.156Z,2.10
2018-06-08T08:54:19.530Z,2.40
2018-06-08T08:56:47.971Z,2.30
2018-06-08T08:59:16.331Z,2.37
2018-06-08T09:01:44.741Z,2.23
2018-06-08T09:04:13.111Z,2.27
2018-06-08T09:06:41.511Z,2.53
2018-06-08T09:09:09.882Z,2.37
2018-06-08T09:11:38.254Z,2.80
2018-06-08T09:14:06.697Z,2.40
2018-06-08T09:16:35.066Z,2.07
2018-06-08T09:19:03.459Z,2.87
2018-06-08T09:21:31.835Z,2.60
2018-06-08T09:24:00.243Z,2.60
2018-06-08T09:26:28.623Z,2.70
2018-06-08T09:28:57.009Z,2.30
2018-06-08T09:31:25.380Z,2.93
2018-06-08T09:33:53.786Z,2.70
2018-06-08T09:36:22.165Z,3.00
2018-06-08T09:38:50.554Z,2.27
2018-06-08T09:41:18.932Z,2.90
2018-06-08T09:43:47.327Z,2.57
2018-06-08T09:46:15.724Z,2.07
2018-06-08T09:48:44.143Z,2.63
2018-06-08T09:51:12.535Z,2.10
2018-06-08T09:53:40.918Z,2.80
2018-06-08T09:56:09.321Z,2.80
2018-06-08T09:58:37.835Z,2.63
2018-06-08T10:01:06.264Z,2.60
2018-06-08T10:03:34.635Z,2.90
2018-06-08T10:06:03.070Z,2.63
2018-06-08T10:08:31.434Z,2.60
2018-06-08T10:10:59.834Z,2.60
2018-06-08T10:13:28.310Z,2.67
2018-06-08T10:15:56.702Z,2.87
2018-06-08T10:18:25.067Z,2.30
2018-06-08T10:20:53.487Z,2.30
2018-06-08T10:23:21.883Z,2.63
2018-06-08T10:25:50.255Z,1.83
2018-06-08T10:28:18.666Z,2.43
2018-06-08T10:30:47.051Z,2.20
2018-06-08T10:33:15.450Z,2.63
2018-06-08T10:35:43.831Z,2.37
2018-06-08T10:38:12.226Z,2.73
2018-06-08T10:40:40.598Z,2.50
2018-06-08T10:43:08.996Z,3.10
2018-06-08T10:45:37.447Z,2.60
2018-06-08T10:48:05.858Z,2.57
2018-06-08T10:50:34.236Z,3.00
2018-06-08T10:53:02.635Z,2.93
2018-06-08T10:55:31.021Z,2.90
2018-06-08T10:57:59.434Z,3.10
2018-06-08T11:00:27.826Z,2.40
2018-06-08T11:02:56.199Z,2.63
2018-06-08T11:05:24.586Z,2.67
2018-06-08T11:07:52.954Z,2.40
2018-06-08T11:10:21.345Z,2.90
2018-06-08T11:12:49.719Z,2.60
2018-06-08T11:15:18.114Z,2.63
2018-06-08T11:17:46.482Z,2.90
2018-06-08T11:20:14.890Z,2.70
2018-06-08T11:22:43.261Z,2.90
2018-06-08T11:25:11.651Z,2.90
2018-06-08T11:27:40.019Z,2.20
2018-06-08T11:30:08.430Z,2.70
2018-06-08T11:32:36.793Z,2.80
2018-06-08T11:35:05.163Z,3.30
2018-06-08T11:37:33.555Z,3.30
2018-06-08T11:40:01.931Z,3.07
2018-06-08T11:42:30.326Z,3.00
2018-06-08T11:44:58.695Z,3.03
2018-06-08T11:47:27.078Z,3.63
2018-06-08T11:49:55.450Z,3.10
2018-06-08T11:52:23.846Z,3.10
2018-06-08T11:54:52.213Z,3.60
2018-06-08T11:57:20.602Z,3.50
2018-06-08T11:59:48.961Z,2.70
2018-06-08T12:02:17.373Z,2.97
2018-06-08T12:04:45.742Z,3.00
2018-06-08T12:07:14.138Z,3.23
2018-06-08T12:09:42.526Z,3.03
2018-06-08T12:12:10.915Z,3.30
2018-06-08T12:14:39.287Z,3.33
2018-06-08T12:17:07.694Z,3.67
2018-06-08T12:19:36.066Z,3.60
2018-06-08T12:22:04.482Z,3.30
2018-06-08T12:24:32.922Z,3.60
2018-06-08T12:27:01.293Z,2.93
2018-06-08T12:29:29.698Z,3.50
2018-06-08T12:31:58.070Z,3.50
2018-06-08T12:34:26.471Z,3.87
2018-06-08T12:36:54.848Z,4.10
2018-06-08T12:39:23.243Z,3.57
2018-06-08T12:41:51.610Z,4.20
2018-06-08T12:44:20.001Z,3.17
2018-06-08T12:46:48.375Z,3.20
2018-06-08T12:49:18.388Z,3.50
2018-06-08T12:51:46.750Z,3.30
2018-06-08T12:54:15.167Z,3.43
2018-06-08T12:56:43.552Z,3.50
2018-06-08T12:59:11.931Z,3.47
2018-06-08T13:01:40.356Z,3.77
2018-06-08T13:04:08.734Z,3.93
2018-06-08T13:06:37.140Z,4.60
2018-06-08T13:09:07.320Z,4.50
2018-06-08T13:11:35.978Z,4.27
2018-06-08T13:14:04.366Z,4.20
2018-06-08T13:16:32.762Z,4.13
2018-06-08T13:19:01.399Z,4.70
2018-06-08T13:21:29.798Z,4.43
2018-06-08T13:23:58.184Z,4.07
2018-06-08T13:26:26.581Z,4.23
2018-06-08T13:28:54.966Z,4.70
2018-06-08T13:31:23.364Z,4.17
2018-06-08T13:33:51.743Z,4.73
2018-06-08T13:36:20.189Z,4.47
2018-06-08T13:38:48.555Z,4.20
2018-06-08T13:41:16.921Z,3.50
2018-06-08T13:43:45.315Z,3.10
2018-06-08T13:46:25.179Z,3.90
2018-06-08T13:48:53.555Z,4.70
2018-06-08T13:51:21.934Z,5.70
2018-06-08T13:53:50.334Z,4.30
2018-06-08T13:56:18.717Z,4.70
2018-06-08T13:58:47.122Z,4.20
2018-06-08T14:01:15.512Z,4.30
2018-06-08T14:03:43.905Z,3.93
2018-06-08T14:06:12.279Z,4.10
2018-06-08T14:08:40.690Z,3.40
2018-06-08T14:11:09.071Z,3.47
2018-06-08T14:13:37.473Z,2.83
2018-06-08T14:16:05.844Z,3.40
2018-06-08T14:18:34.235Z,2.83
2018-06-08T14:21:02.614Z,3.07
2018-06-08T14:23:31.014Z,2.40
2018-06-08T14:25:59.381Z,2.00
2018-06-08T14:28:27.783Z,2.97
2018-06-08T14:30:56.153Z,2.80
2018-06-08T14:33:24.554Z,2.40
2018-06-08T14:35:52.928Z,2.53
2018-06-08T14:38:21.333Z,2.23
2018-06-08T14:40:49.746Z,2.73
2018-06-08T14:43:18.109Z,2.50
2018-06-08T14:45:46.510Z,2.80
2018-06-08T14:48:14.887Z,2.27
2018-06-08T14:50:43.299Z,2.80
2018-06-08T14:53:11.683Z,3.10
2018-06-08T14:55:40.094Z,3.20
2018-06-08T14:58:08.471Z,2.50
2018-06-08T15:00:36.892Z,3.07
2018-06-08T15:03:05.759Z,2.50
2018-06-08T15:05:34.161Z,2.20
2018-06-08T15:08:02.542Z,2.33
2018-06-08T15:10:30.999Z,2.60
2018-06-08T15:12:59.371Z,2.70
2018-06-08T15:15:27.798Z,2.73
2018-06-08T15:17:56.162Z,2.50
2018-06-08T15:20:24.551Z,2.60
2018-06-08T15:22:52.926Z,3.20
2018-06-08T15:25:21.324Z,3.20
2018-06-08T15:27:49.745Z,3.10
2018-06-08T15:30:18.179Z,3.00
2018-06-08T15:32:46.554Z,2.93
2018-06-08T15:35:14.932Z,3.10
2018-06-08T15:37:43.334Z,2.97
2018-06-08T15:40:11.706Z,2.97
2018-06-08T15:42:40.115Z,2.50
2018-06-08T15:45:08.514Z,2.20
2018-06-08T15:47:36.911Z,2.10
2018-06-08T15:50:05.428Z,2.33
2018-06-08T15:52:33.823Z,2.13
2018-06-08T15:55:02.208Z,2.30
2018-06-08T15:57:30.610Z,2.37
2018-06-08T15:59:58.991Z,2.07
2018-06-08T16:02:27.415Z,2.10
2018-06-08T16:04:55.786Z,2.00
2018-06-08T16:07:24.182Z,2.47
2018-06-08T16:09:52.562Z,2.10
2018-06-08T16:12:20.969Z,2.47
2018-06-08T16:14:49.355Z,2.00
2018-06-08T16:17:17.754Z,2.47
2018-06-08T16:19:46.127Z,2.03
2018-06-08T16:22:14.546Z,2.43
2018-06-08T16:24:42.922Z,2.20
2018-06-08T16:27:11.294Z,2.50
2018-06-08T16:29:39.695Z,2.10
2018-06-08T16:32:08.071Z,1.87
2018-06-08T16:34:36.471Z,2.37
2018-06-08T16:37:04.866Z,2.60
2018-06-08T16:39:33.266Z,2.70
2018-06-08T16:42:01.650Z,1.87
2018-06-08T16:44:30.056Z,2.40
2018-06-08T16:46:58.431Z,2.13
2018-06-08T16:49:26.846Z,2.30
2018-06-08T16:51:55.218Z,1.80
2018-06-08T16:54:23.625Z,2.33
2018-06-08T16:56:51.998Z,2.30
2018-06-08T16:59:20.427Z,3.20
2018-06-08T17:01:48.823Z,2.60
2018-06-08T17:04:17.232Z,2.97
2018-06-08T17:06:45.651Z,2.57
2018-06-08T17:09:14.057Z,2.30
2018-06-08T17:11:42.430Z,2.60
2018-06-08T17:14:10.854Z,2.43
2018-06-08T17:16:39.239Z,2.93
2018-06-08T17:19:07.679Z,2.20
2018-06-08T17:21:36.071Z,1.90
2018-06-08T17:24:04.487Z,1.90
2018-06-08T17:26:32.913Z,3.03
2018-06-08T17:29:01.286Z,2.07
2018-06-08T17:31:29.692Z,1.90
2018-06-08T17:33:58.099Z,2.00
2018-06-08T17:36:26.495Z,2.40
2018-06-08T17:38:54.880Z,1.80
2018-06-08T17:41:23.282Z,2.03
2018-06-08T17:43:51.645Z,2.30
2018-06-08T17:46:20.042Z,2.00
2018-06-08T17:48:48.423Z,1.20
2018-06-08T17:51:16.823Z,1.93
2018-06-08T17:53:45.199Z,1.60
2018-06-08T17:56:13.590Z,1.60
2018-06-08T17:58:41.959Z,1.90
2018-06-08T18:01:10.384Z,1.93
2018-06-08T18:03:38.766Z,1.50
2018-06-08T18:06:07.224Z,1.97
2018-06-08T18:08:35.574Z,1.50
2018-06-08T18:11:03.978Z,1.50
2018-06-08T18:13:32.398Z,1.77
2018-06-08T18:16:00.825Z,1.87
2018-06-08T18:18:29.198Z,1.70
2018-06-08T18:20:57.598Z,1.83
2018-06-08T18:23:26.011Z,1.53
2018-06-08T18:25:54.378Z,1.77
2018-06-08T18:28:22.775Z,2.07
2018-06-08T18:30:51.174Z,2.60
2018-06-08T18:33:19.630Z,2.27
2018-06-08T18:35:47.987Z,2.47
2018-06-08T18:38:16.383Z,1.93
2018-06-08T18:40:44.749Z,2.07
2018-06-08T18:43:13.167Z,2.27
2018-06-08T18:45:41.542Z,2.27
2018-06-08T18:48:09.939Z,2.30
2018-06-08T18:50:38.307Z,2.00
2018-06-08T18:53:06.701Z,2.30
2018-06-08T18:55:35.074Z,2.90
2018-06-08T18:58:03.547Z,2.37
2018-06-08T19:00:32.039Z,2.43
2018-06-08T19:03:00.580Z,1.90
2018-06-08T19:05:28.952Z,2.30
2018-06-08T19:07:57.403Z,2.30
2018-06-08T19:10:25.780Z,1.90
2018-06-08T19:12:54.152Z,2.70
2018-06-08T19:15:22.551Z,2.20
2018-06-08T19:17:50.926Z,1.77
2018-06-08T19:20:19.335Z,2.10
2018-06-08T19:22:47.718Z,1.83
2018-06-08T19:25:16.122Z,1.60
2018-06-08T19:27:44.503Z,2.10
2018-06-08T19:30:12.909Z,1.80
2018-06-08T19:32:41.290Z,2.97
2018-06-08T19:35:09.743Z,1.97
2018-06-08T19:37:38.125Z,2.50
2018-06-08T19:40:06.526Z,2.70
2018-06-08T19:42:34.906Z,2.63
2018-06-08T19:45:03.310Z,3.20
2018-06-08T19:47:31.688Z,2.80
2018-06-08T19:50:00.087Z,2.37
2018-06-08T19:52:28.466Z,3.30
2018-06-08T19:54:56.846Z,3.43
2018-06-08T19:57:25.251Z,3.60
2018-06-08T19:59:53.627Z,3.60
2018-06-08T20:02:22.151Z,4.17
2018-06-08T20:04:50.539Z,3.40
2018-06-08T20:07:18.940Z,2.80
2018-06-08T20:09:47.309Z,2.43
2018-06-08T20:12:15.704Z,3.20
2018-06-08T20:14:44.065Z,2.87
2018-06-08T20:17:12.462Z,3.70
2018-06-08T20:19:40.832Z,3.10
2018-06-08T20:22:09.222Z,4.20
2018-06-08T20:24:37.599Z,4.10
2018-06-08T20:27:06.381Z,3.77
2018-06-08T20:29:34.746Z,3.87
2018-06-08T20:32:03.145Z,3.10
2018-06-08T20:34:31.520Z,3.43
2018-06-08T20:36:59.917Z,3.60
2018-06-08T20:39:28.284Z,3.40
2018-06-08T20:41:56.695Z,3.13
2018-06-08T20:44:25.063Z,3.37
2018-06-08T20:46:53.443Z,2.97
2018-06-08T20:49:21.957Z,3.20
2018-06-08T20:51:50.411Z,4.40
2018-06-08T20:54:18.801Z,4.60
2018-06-08T20:56:57.203Z,6.80
2018-06-08T20:59:25.598Z,7.10
2018-06-08T21:01:53.997Z,7.73
2018-06-08T21:04:22.409Z,7.90
2018-06-08T21:06:50.779Z,5.40
2018-06-08T21:09:19.184Z,5.77
2018-06-08T21:11:47.555Z,5.30
2018-06-08T21:14:15.950Z,4.57
2018-06-08T21:16:44.331Z,4.30
2018-06-08T21:19:12.730Z,5.37
2018-06-08T21:21:41.102Z,5.30
2018-06-08T21:24:09.495Z,5.70
2018-06-08T21:26:37.874Z,4.90
2018-06-08T21:29:06.295Z,4.87
2018-06-08T21:31:34.665Z,4.93
2018-06-08T21:34:03.094Z,4.60
2018-06-08T21:36:31.491Z,4.50
2018-06-08T21:38:59.862Z,4.63
2018-06-08T21:41:29.167Z,4.20
2018-06-08T21:43:57.543Z,4.00
2018-06-08T21:46:25.934Z,3.60
2018-06-08T21:48:54.302Z,3.57
2018-06-08T21:51:22.690Z,3.37
2018-06-08T21:53:51.054Z,4.23
2018-06-08T21:56:19.451Z,3.40
2018-06-08T21:58:47.826Z,3.10
2018-06-08T22:01:16.246Z,4.00
2018-06-08T22:03:44.611Z,4.00
2018-06-08T22:06:13.003Z,3.80
2018-06-08T22:08:41.382Z,3.83
2018-06-08T22:11:09.771Z,3.80
2018-06-08T22:13:38.142Z,3.30
2018-06-08T22:16:06.553Z,3.60
2018-06-08T22:18:34.966Z,3.73
2018-06-08T22:21:03.339Z,3.17
2018-06-08T22:23:31.734Z,3.67
2018-06-08T22:26:00.114Z,3.50
2018-06-08T22:28:28.510Z,3.50
2018-06-08T22:30:56.887Z,4.10
2018-06-08T22:33:25.275Z,3.87
2018-06-08T22:35:53.646Z,4.30
2018-06-08T22:38:22.045Z,3.90
2018-06-08T22:40:50.420Z,4.40
2018-06-08T22:43:18.809Z,4.23
2018-06-08T22:45:47.186Z,3.83
2018-06-08T22:48:15.582Z,4.63
2018-06-08T22:50:43.948Z,4.80
2018-06-08T22:53:12.342Z,4.70
2018-06-08T22:55:40.720Z,5.80
2018-06-08T22:58:09.303Z,5.43
2018-06-08T23:00:37.674Z,5.80
2018-06-08T23:03:06.097Z,6.00
2018-06-08T23:05:34.468Z,4.93
2018-06-08T23:08:02.839Z,5.87
2018-06-08T23:10:31.230Z,4.90
2018-06-08T23:12:59.634Z,5.00
2018-06-08T23:15:28.058Z,4.73
2018-06-08T23:17:56.440Z,5.23
2018-06-08T23:20:24.838Z,4.50
2018-06-08T23:22:53.203Z,4.93
2018-06-08T23:25:21.594Z,4.73
2018-06-08T23:27:49.971Z,5.00
2018-06-08T23:30:18.377Z,4.37
2018-06-08T23:32:46.761Z,5.13
2018-06-08T23:35:15.145Z,5.33
2018-06-08T23:37:43.518Z,5.10
2018-06-08T23:40:11.910Z,5.17
2018-06-08T23:42:40.270Z,5.60
2018-06-08T23:45:08.656Z,5.67
2018-06-08T23:47:37.030Z,5.33
2018-06-08T23:50:05.418Z,5.90
2018-06-08T23:52:33.791Z,5.87
2018-06-08T23:55:02.196Z,5.00
2018-06-08T23:57:30.674Z,5.27
2018-06-08T23:59:59.065Z,5.73
